Weather at Miami International Airport

Public forecast

Using degrees Fahrenheit for public forecast. Weather courtesy of forecast.io.

Current aviation weather report (METAR) for Miami International Airport

Retrieved 2021/10/22 06:53 UTC (27 minutes ago):

KMIA 220653Z 08005KT 10SM FEW019 BKN250 26/24 A3001 RMK AO2 SLP162 T02560239

Aviation forecast (TAF) for Miami International Airport

Retrieved 2021/10/22 06:30 UTC (50 minutes ago):

TAF KMIA 220529Z 2206/2312 VRB05KT P6SM FEW040 SCT060 FM221500 10011KT P6SM VCSH SCT025 BKN050 FM230100 VRB04KT P6SM VCSH SCT030 SCT060